createdAt,value
2019-03-24T00:01:41.380Z,73.75
2019-03-24T00:04:08.227Z,69.33
2019-03-24T00:06:37.799Z,59.30
2019-03-24T00:12:41.413Z,69.53
2019-03-24T00:15:11.805Z,70.53
2019-03-24T00:17:41.393Z,68.07
2019-03-24T00:20:12.003Z,69.40
2019-03-24T00:22:41.598Z,77.27
2019-03-24T00:25:11.575Z,64.73
2019-03-24T00:27:41.311Z,67.67
2019-03-24T00:30:13.547Z,63.90
2019-03-24T00:32:43.206Z,62.30
2019-03-24T00:35:13.095Z,69.12
2019-03-24T00:37:42.402Z,65.17
2019-03-24T00:40:13.396Z,71.33
2019-03-24T00:42:42.938Z,63.95
2019-03-24T00:45:13.104Z,67.23
2019-03-24T00:47:43.030Z,70.23
2019-03-24T00:50:13.577Z,66.80
2019-03-24T00:52:43.055Z,76.93
2019-03-24T00:55:15.148Z,66.22
2019-03-24T00:57:44.694Z,71.50
2019-03-24T01:03:05.534Z,65.50
2019-03-24T01:05:35.020Z,65.90
2019-03-24T01:08:04.640Z,82.00
2019-03-24T01:10:34.198Z,73.30
2019-03-24T01:13:03.755Z,71.97
2019-03-24T01:15:34.482Z,65.45
2019-03-24T01:18:04.185Z,67.20
2019-03-24T01:20:33.647Z,74.27
2019-03-24T01:23:03.566Z,77.32
2019-03-24T01:25:33.133Z,65.97
2019-03-24T01:28:02.675Z,78.90
2019-03-24T01:30:32.211Z,75.10
2019-03-24T01:33:01.976Z,75.52
2019-03-24T01:35:31.564Z,76.63
2019-03-24T01:38:01.067Z,74.80
2019-03-24T01:40:30.868Z,72.15
2019-03-24T01:43:00.540Z,78.07
2019-03-24T01:45:30.181Z,71.37
2019-03-24T01:47:59.737Z,77.57
2019-03-24T01:50:29.169Z,78.97
2019-03-24T01:52:58.640Z,79.60
2019-03-24T01:55:28.708Z,67.08
2019-03-24T01:57:57.919Z,78.33
2019-03-24T02:00:27.541Z,77.82
2019-03-24T02:02:57.001Z,79.30
2019-03-24T02:05:26.505Z,72.37
2019-03-24T02:07:56.016Z,74.23
2019-03-24T02:10:25.527Z,78.42
2019-03-24T02:12:54.985Z,82.85
2019-03-24T02:15:24.539Z,92.47
2019-03-24T02:17:53.998Z,87.07
2019-03-24T02:20:23.546Z,75.57
2019-03-24T02:22:52.885Z,75.57
2019-03-24T02:25:22.836Z,83.97
2019-03-24T02:27:52.364Z,84.40
2019-03-24T02:30:21.975Z,83.43
2019-03-24T02:32:51.519Z,81.50
2019-03-24T02:35:20.701Z,85.10
2019-03-24T02:37:50.360Z,83.03
2019-03-24T02:40:19.997Z,79.25
2019-03-24T02:42:49.618Z,77.00
2019-03-24T02:45:19.967Z,77.57
2019-03-24T02:47:49.551Z,83.67
2019-03-24T02:50:19.207Z,76.70
2019-03-24T02:52:48.569Z,85.40
2019-03-24T02:55:18.099Z,85.93
2019-03-24T02:57:47.676Z,85.33
2019-03-24T03:00:18.396Z,84.90
2019-03-24T03:02:48.041Z,92.93
2019-03-24T03:05:17.637Z,86.10
2019-03-24T03:07:47.265Z,86.60
2019-03-24T03:10:17.191Z,84.47
2019-03-24T03:12:47.839Z,89.43
2019-03-24T03:15:17.550Z,94.27
2019-03-24T03:17:46.851Z,86.93
2019-03-24T03:20:17.035Z,100.60
2019-03-24T03:22:46.517Z,82.93
2019-03-24T03:25:16.710Z,88.33
2019-03-24T03:27:46.250Z,87.17
2019-03-24T03:30:16.707Z,89.50
2019-03-24T03:32:46.151Z,95.92
2019-03-24T03:35:15.748Z,88.00
2019-03-24T03:37:45.328Z,87.20
2019-03-24T03:40:15.634Z,80.33
2019-03-24T03:42:45.189Z,83.13
2019-03-24T03:45:19.460Z,87.23
2019-03-24T03:47:49.052Z,75.77
2019-03-24T03:50:19.361Z,88.00
2019-03-24T03:53:28.902Z,90.77
2019-03-24T03:55:58.439Z,92.75
2019-03-24T03:58:27.915Z,83.33
2019-03-24T04:00:57.404Z,86.23
2019-03-24T04:03:27.037Z,93.53
2019-03-24T04:05:56.489Z,103.55
2019-03-24T04:08:25.992Z,100.13
2019-03-24T04:10:55.483Z,86.22
2019-03-24T04:13:24.942Z,86.47
2019-03-24T04:15:54.089Z,101.30
2019-03-24T04:18:23.680Z,94.77
2019-03-24T04:20:53.764Z,99.90
2019-03-24T04:23:22.940Z,100.87
2019-03-24T04:25:52.569Z,100.47
2019-03-24T04:28:21.896Z,89.80
2019-03-24T04:30:51.300Z,91.90
2019-03-24T04:33:20.777Z,87.62
2019-03-24T04:35:50.427Z,96.35
2019-03-24T04:38:19.989Z,92.10
2019-03-24T04:40:49.589Z,90.27
2019-03-24T04:43:19.056Z,98.27
2019-03-24T04:45:48.532Z,89.23
2019-03-24T04:48:18.001Z,90.97
2019-03-24T04:50:47.495Z,93.63
2019-03-24T04:53:17.042Z,110.08
2019-03-24T04:55:46.590Z,98.92
2019-03-24T04:58:16.069Z,95.10
2019-03-24T05:00:45.617Z,93.50
2019-03-24T05:03:15.226Z,97.03
2019-03-24T05:05:45.812Z,100.63
2019-03-24T05:08:15.751Z,94.07
2019-03-24T05:10:45.213Z,97.70
2019-03-24T05:13:14.820Z,111.60
2019-03-24T05:15:44.307Z,97.95
2019-03-24T05:18:13.704Z,103.43
2019-03-24T05:20:43.191Z,95.33
2019-03-24T05:23:12.758Z,91.55
2019-03-24T05:25:42.292Z,96.67
2019-03-24T05:28:11.864Z,107.55
2019-03-24T05:30:41.428Z,103.63
2019-03-24T05:33:10.977Z,107.40
2019-03-24T05:35:40.627Z,107.27
2019-03-24T05:38:10.554Z,112.70
2019-03-24T05:40:41.743Z,91.07
2019-03-24T05:43:11.449Z,109.07
2019-03-24T05:45:41.019Z,110.50
2019-03-24T05:48:11.031Z,96.23
2019-03-24T05:50:40.613Z,101.37
2019-03-24T05:53:10.363Z,96.43
2019-03-24T05:55:39.928Z,85.15
2019-03-24T05:58:09.595Z,99.10
2019-03-24T06:00:39.171Z,95.87
2019-03-24T06:03:08.844Z,94.17
2019-03-24T06:05:38.422Z,95.40
2019-03-24T06:08:08.339Z,84.03
2019-03-24T06:10:37.914Z,91.60
2019-03-24T06:13:07.895Z,85.60
2019-03-24T06:15:37.361Z,81.15
2019-03-24T06:18:07.048Z,76.07
2019-03-24T06:20:36.499Z,73.93
2019-03-24T06:23:06.079Z,83.17
2019-03-24T06:25:35.538Z,76.75
2019-03-24T06:28:05.315Z,76.50
2019-03-24T06:30:54.092Z,77.57
2019-03-24T06:33:23.594Z,78.50
2019-03-24T06:35:53.152Z,82.53
2019-03-24T06:38:22.752Z,82.33
2019-03-24T06:40:52.354Z,70.95
2019-03-24T06:43:23.936Z,71.33
2019-03-24T06:46:15.101Z,70.03
2019-03-24T06:49:04.615Z,74.40
2019-03-24T06:51:34.064Z,84.93
2019-03-24T06:54:05.417Z,68.47
2019-03-24T06:56:34.967Z,73.75
2019-03-24T06:59:04.611Z,74.03
2019-03-24T07:01:34.137Z,70.87
2019-03-24T07:04:03.807Z,75.87
2019-03-24T07:06:34.760Z,71.10
2019-03-24T07:09:06.196Z,65.85
2019-03-24T07:11:36.609Z,72.97
2019-03-24T07:14:06.349Z,67.12
2019-03-24T07:16:35.677Z,72.17
2019-03-24T07:19:05.423Z,65.07
2019-03-24T07:21:35.176Z,62.73
2019-03-24T07:24:04.810Z,70.43
2019-03-24T07:26:34.336Z,65.77
2019-03-24T07:29:03.826Z,68.30
2019-03-24T07:31:34.261Z,62.93
2019-03-24T07:34:03.759Z,70.30
2019-03-24T07:36:33.281Z,64.85
2019-03-24T07:39:02.776Z,62.70
2019-03-24T07:41:32.413Z,60.50
2019-03-24T07:44:01.912Z,60.93
2019-03-24T07:46:32.953Z,60.95
2019-03-24T07:49:02.463Z,62.27
2019-03-24T07:51:32.397Z,62.38
2019-03-24T07:54:01.964Z,58.37
2019-03-24T07:56:31.513Z,58.48
2019-03-24T07:59:01.184Z,57.80
2019-03-24T08:01:30.849Z,54.70
2019-03-24T08:04:00.580Z,62.33
2019-03-24T08:06:30.168Z,58.00
2019-03-24T08:08:59.778Z,57.30
2019-03-24T08:11:30.034Z,54.90
2019-03-24T08:13:59.804Z,56.83
2019-03-24T08:16:29.490Z,57.88
2019-03-24T08:18:59.108Z,62.80
2019-03-24T08:21:28.749Z,59.83
2019-03-24T08:23:58.271Z,58.17
2019-03-24T08:26:29.408Z,60.73
2019-03-24T08:29:01.585Z,65.42
2019-03-24T08:31:31.639Z,58.30
2019-03-24T08:34:01.187Z,55.50
2019-03-24T08:37:10.711Z,59.10
2019-03-24T08:39:40.349Z,57.00
2019-03-24T08:42:10.285Z,49.53
2019-03-24T08:44:39.863Z,58.65
2019-03-24T08:47:09.606Z,61.40
2019-03-24T08:49:39.117Z,55.63
2019-03-24T08:52:08.967Z,58.90
2019-03-24T08:54:38.466Z,54.20
2019-03-24T08:57:08.406Z,56.13
2019-03-24T09:02:33.995Z,60.03
2019-03-24T09:05:04.220Z,59.07
2019-03-24T09:07:33.686Z,61.13
2019-03-24T09:10:03.724Z,57.17
2019-03-24T09:12:33.297Z,59.45
2019-03-24T09:15:03.015Z,59.63
2019-03-24T09:17:32.646Z,57.90
2019-03-24T09:20:02.223Z,53.85
2019-03-24T09:22:31.683Z,65.62
2019-03-24T09:25:22.149Z,59.80
2019-03-24T09:27:51.673Z,49.27
2019-03-24T09:30:24.333Z,59.07
2019-03-24T09:33:14.642Z,57.40
2019-03-24T09:35:44.083Z,68.60
2019-03-24T09:38:13.552Z,56.15
2019-03-24T09:40:44.594Z,52.17
2019-03-24T09:43:14.573Z,55.27
2019-03-24T09:45:44.647Z,56.02
2019-03-24T09:48:14.302Z,49.30
2019-03-24T09:50:43.844Z,51.40
2019-03-24T09:53:13.312Z,48.43
2019-03-24T09:55:42.931Z,56.00
2019-03-24T09:58:52.465Z,49.00
2019-03-24T10:01:21.989Z,60.28
2019-03-24T10:03:51.929Z,50.38
2019-03-24T10:06:21.490Z,56.07
2019-03-24T10:08:51.088Z,48.98
2019-03-24T10:11:20.748Z,53.23
2019-03-24T10:13:50.315Z,45.00
2019-03-24T10:16:19.979Z,52.73
2019-03-24T10:18:49.543Z,52.43
2019-03-24T10:21:19.002Z,53.02
2019-03-24T10:23:49.022Z,53.65
2019-03-24T10:26:18.656Z,51.43
2019-03-24T10:28:48.155Z,50.17
2019-03-24T10:31:17.760Z,48.33
2019-03-24T10:33:47.291Z,47.30
2019-03-24T10:36:16.779Z,53.70
2019-03-24T10:38:46.245Z,57.93
2019-03-24T10:41:15.712Z,52.90
2019-03-24T10:43:46.332Z,52.80
2019-03-24T10:46:15.813Z,47.83
2019-03-24T10:48:45.365Z,52.05
2019-03-24T10:51:14.823Z,52.10
2019-03-24T10:53:44.450Z,43.83
2019-03-24T10:56:13.918Z,50.77
2019-03-24T10:58:43.277Z,44.57
2019-03-24T11:01:19.720Z,51.15
2019-03-24T11:03:49.748Z,52.40
2019-03-24T11:06:20.081Z,44.20
2019-03-24T11:08:49.949Z,47.30
2019-03-24T11:11:20.494Z,48.27
2019-03-24T11:13:50.882Z,52.60
2019-03-24T11:16:20.799Z,48.30
2019-03-24T11:18:50.398Z,47.30
2019-03-24T11:21:20.027Z,51.60
2019-03-24T11:23:49.689Z,46.80
2019-03-24T11:26:19.234Z,50.37
2019-03-24T11:28:48.865Z,48.17
2019-03-24T11:31:18.354Z,43.83
2019-03-24T11:33:47.861Z,49.50
2019-03-24T11:36:17.542Z,48.27
2019-03-24T11:38:47.029Z,51.53
2019-03-24T11:41:16.498Z,52.80
2019-03-24T11:43:46.114Z,42.50
2019-03-24T11:46:15.605Z,43.95
2019-03-24T11:48:44.829Z,44.47
2019-03-24T11:51:15.999Z,42.20
2019-03-24T11:53:45.613Z,36.00
2019-03-24T11:56:15.124Z,39.40
2019-03-24T11:58:44.664Z,38.87
2019-03-24T12:01:14.317Z,47.33
2019-03-24T12:03:43.539Z,45.28
2019-03-24T12:06:14.735Z,46.50
2019-03-24T12:08:44.045Z,47.43
2019-03-24T12:11:13.519Z,43.87
2019-03-24T12:13:43.000Z,47.53
2019-03-24T12:16:12.613Z,47.33
2019-03-24T12:18:42.147Z,43.37
2019-03-24T12:21:11.807Z,45.03
2019-03-24T12:23:41.537Z,48.60
2019-03-24T12:26:11.161Z,46.42
2019-03-24T12:28:40.788Z,46.40
2019-03-24T12:31:10.204Z,42.60
2019-03-24T12:33:39.856Z,42.13
2019-03-24T12:36:09.587Z,45.70
2019-03-24T12:38:39.058Z,40.33
2019-03-24T12:41:09.046Z,41.43
2019-03-24T12:43:38.508Z,40.63
2019-03-24T12:46:08.200Z,38.23
2019-03-24T12:48:37.670Z,38.13
2019-03-24T12:51:07.752Z,38.17
2019-03-24T12:53:37.225Z,43.83
2019-03-24T12:56:06.816Z,39.60
2019-03-24T12:58:36.379Z,46.95
2019-03-24T13:01:06.061Z,40.60
2019-03-24T13:03:35.959Z,41.90
2019-03-24T13:06:05.767Z,37.53
2019-03-24T13:08:35.295Z,40.87
2019-03-24T13:11:04.917Z,41.63
2019-03-24T13:13:34.392Z,42.03
2019-03-24T13:16:03.890Z,44.83
2019-03-24T13:18:33.358Z,43.70
2019-03-24T13:21:04.430Z,39.53
2019-03-24T13:23:33.907Z,38.03
2019-03-24T13:26:03.483Z,35.97
2019-03-24T13:28:33.032Z,38.97
2019-03-24T13:31:02.625Z,38.80
2019-03-24T13:33:32.227Z,50.35
2019-03-24T13:36:03.507Z,44.00
2019-03-24T13:38:32.842Z,38.90
2019-03-24T13:41:02.398Z,39.87
2019-03-24T13:43:31.768Z,37.70
2019-03-24T13:46:01.419Z,42.15
2019-03-24T13:48:31.053Z,36.53
2019-03-24T13:51:00.795Z,36.80
2019-03-24T13:53:30.336Z,39.53
2019-03-24T13:56:00.040Z,35.77
2019-03-24T13:58:29.627Z,38.30
2019-03-24T14:00:59.265Z,41.63
2019-03-24T14:03:28.865Z,38.67
2019-03-24T14:05:58.426Z,37.28
2019-03-24T14:08:27.978Z,39.70
2019-03-24T14:10:57.500Z,41.03
2019-03-24T14:13:28.294Z,43.20
2019-03-24T14:15:57.854Z,41.70
2019-03-24T14:18:28.240Z,39.77
2019-03-24T14:20:57.855Z,43.10
2019-03-24T14:23:27.410Z,40.13
2019-03-24T14:25:56.915Z,29.55
2019-03-24T14:28:26.449Z,34.37
2019-03-24T14:30:55.928Z,32.50
2019-03-24T14:33:25.443Z,32.50
2019-03-24T14:35:55.017Z,32.37
2019-03-24T14:38:24.579Z,33.47
2019-03-24T14:40:54.129Z,36.10
2019-03-24T14:43:23.641Z,31.00
2019-03-24T14:45:53.303Z,37.28
2019-03-24T14:48:36.261Z,32.90
2019-03-24T14:51:05.993Z,37.70
2019-03-24T14:53:35.736Z,36.40
2019-03-24T14:56:05.325Z,33.80
2019-03-24T14:58:34.816Z,28.23
2019-03-24T15:01:04.433Z,30.60
2019-03-24T15:03:33.924Z,30.50
2019-03-24T15:06:03.455Z,33.48
2019-03-24T15:08:33.020Z,29.27
2019-03-24T15:11:02.569Z,31.20
2019-03-24T15:13:32.130Z,38.20
2019-03-24T15:16:01.785Z,33.15
2019-03-24T15:18:31.528Z,32.50
2019-03-24T15:21:05.971Z,27.30
2019-03-24T15:23:32.527Z,30.60
2019-03-24T15:26:02.157Z,29.67
2019-03-24T15:28:31.892Z,29.42
2019-03-24T15:31:01.510Z,29.53
2019-03-24T15:33:31.763Z,30.20
2019-03-24T15:36:01.547Z,30.10
2019-03-24T15:38:31.091Z,28.62
2019-03-24T15:41:00.859Z,26.97
2019-03-24T15:43:30.506Z,22.67
2019-03-24T15:46:00.121Z,24.80
2019-03-24T15:48:29.779Z,23.53
2019-03-24T15:50:59.324Z,20.12
2019-03-24T15:53:29.024Z,22.93
2019-03-24T15:55:58.542Z,23.93
2019-03-24T15:58:28.028Z,23.17
2019-03-24T16:00:57.656Z,21.30
2019-03-24T16:03:27.393Z,22.03
2019-03-24T16:05:56.849Z,24.43
2019-03-24T16:08:26.346Z,23.97
2019-03-24T16:10:55.820Z,23.10
2019-03-24T16:13:25.358Z,22.03
2019-03-24T16:15:54.898Z,21.80
2019-03-24T16:18:24.441Z,22.42
2019-03-24T16:20:53.976Z,24.60
2019-03-24T16:23:23.549Z,21.30
2019-03-24T16:25:52.938Z,22.73
2019-03-24T16:28:23.118Z,23.27
2019-03-24T16:30:52.835Z,24.80
2019-03-24T16:33:22.404Z,22.15
2019-03-24T16:35:51.954Z,24.07
2019-03-24T16:38:21.511Z,25.35
2019-03-24T16:40:51.066Z,20.50
2019-03-24T16:43:20.714Z,24.20
2019-03-24T16:45:50.250Z,23.23
2019-03-24T16:48:22.248Z,23.93
2019-03-24T16:50:51.966Z,22.30
2019-03-24T16:53:21.611Z,20.90
2019-03-24T16:55:51.185Z,25.93
2019-03-24T16:58:20.776Z,22.10
2019-03-24T17:00:50.390Z,24.43
2019-03-24T17:03:20.049Z,20.47
2019-03-24T17:05:49.581Z,29.70
2019-03-24T17:08:19.217Z,21.17
2019-03-24T17:10:48.711Z,22.33
2019-03-24T17:13:18.173Z,19.30
2019-03-24T17:15:47.665Z,18.70
2019-03-24T17:18:17.202Z,18.65
2019-03-24T17:20:46.755Z,21.97
2019-03-24T17:23:16.299Z,22.53
2019-03-24T17:25:47.613Z,19.20
2019-03-24T17:28:17.708Z,21.73
2019-03-24T17:30:47.228Z,19.27
2019-03-24T17:33:16.761Z,17.60
2019-03-24T17:35:46.313Z,19.63
2019-03-24T17:38:15.823Z,20.25
2019-03-24T17:40:45.303Z,18.00
2019-03-24T17:43:14.747Z,18.60
2019-03-24T17:45:44.509Z,19.70
2019-03-24T17:48:14.088Z,18.23
2019-03-24T17:50:43.458Z,15.13
2019-03-24T17:53:12.933Z,19.63
2019-03-24T17:55:42.446Z,19.00
2019-03-24T17:58:12.077Z,16.95
2019-03-24T18:00:45.222Z,19.77
2019-03-24T18:03:14.818Z,16.63
2019-03-24T18:05:44.468Z,19.13
2019-03-24T18:08:14.151Z,17.03
2019-03-24T18:10:43.677Z,18.50
2019-03-24T18:13:13.212Z,14.93
2019-03-24T18:15:43.069Z,17.73
2019-03-24T18:18:12.301Z,15.93
2019-03-24T18:20:48.666Z,18.60
2019-03-24T18:23:18.153Z,20.17
2019-03-24T18:25:47.771Z,19.37
2019-03-24T18:28:17.394Z,16.47
2019-03-24T18:30:47.063Z,18.20
2019-03-24T18:33:17.428Z,17.10
2019-03-24T18:35:47.606Z,16.50
2019-03-24T18:38:19.090Z,19.57
2019-03-24T18:40:48.549Z,27.07
2019-03-24T18:43:18.138Z,24.02
2019-03-24T18:45:47.763Z,24.67
2019-03-24T18:48:17.383Z,19.53
2019-03-24T18:50:46.916Z,20.35
2019-03-24T18:53:16.381Z,21.47
2019-03-24T18:55:48.022Z,22.77
2019-03-24T18:58:17.561Z,21.60
2019-03-24T19:00:48.331Z,25.00
2019-03-24T19:03:17.797Z,24.77
2019-03-24T19:05:47.407Z,23.83
2019-03-24T19:08:16.913Z,19.83
2019-03-24T19:10:46.377Z,19.50
2019-03-24T19:13:16.027Z,17.42
2019-03-24T19:15:45.499Z,23.80
2019-03-24T19:18:15.053Z,17.87
2019-03-24T19:20:44.606Z,20.33
2019-03-24T19:23:16.014Z,16.87
2019-03-24T19:25:45.594Z,17.83
2019-03-24T19:28:15.223Z,16.10
2019-03-24T19:30:44.760Z,14.63
2019-03-24T19:33:14.645Z,15.17
2019-03-24T19:35:44.208Z,11.30
2019-03-24T19:38:13.912Z,16.63
2019-03-24T19:40:43.438Z,13.93
2019-03-24T19:43:13.449Z,11.38
2019-03-24T19:45:42.967Z,12.33
2019-03-24T19:48:13.148Z,11.10
2019-03-24T19:50:42.667Z,12.53
2019-03-24T19:53:12.886Z,9.20
2019-03-24T19:55:47.193Z,9.40
2019-03-24T19:58:16.541Z,12.77
2019-03-24T20:03:55.331Z,6.57
2019-03-24T20:06:24.956Z,12.73
2019-03-24T20:09:15.316Z,6.65
2019-03-24T20:11:44.997Z,16.20
2019-03-24T20:14:13.975Z,12.53
2019-03-24T20:16:43.346Z,8.87
2019-03-24T20:19:13.160Z,7.63
2019-03-24T20:21:42.757Z,8.75
2019-03-24T20:24:12.756Z,10.32
2019-03-24T20:26:42.237Z,12.63
2019-03-24T20:29:12.568Z,13.97
2019-03-24T20:31:42.046Z,11.23
2019-03-24T20:34:12.931Z,9.33
2019-03-24T20:36:42.620Z,7.72
2019-03-24T20:39:13.383Z,13.93
2019-03-24T20:41:42.953Z,9.75
2019-03-24T20:44:14.592Z,4.92
2019-03-24T20:47:04.907Z,5.12
2019-03-24T20:49:36.208Z,7.23
2019-03-24T20:52:05.657Z,9.83
2019-03-24T20:54:35.280Z,6.25
2019-03-24T20:57:04.935Z,10.40
2019-03-24T20:59:34.435Z,9.90
2019-03-24T21:02:04.031Z,9.30
2019-03-24T21:04:33.673Z,7.60
2019-03-24T21:07:03.280Z,9.28
2019-03-24T21:09:32.747Z,7.40
2019-03-24T21:12:42.247Z,16.53
2019-03-24T21:15:12.968Z,9.23
2019-03-24T21:17:42.556Z,11.60
2019-03-24T21:20:13.065Z,7.87
2019-03-24T21:22:42.525Z,7.10
2019-03-24T21:25:13.224Z,8.70
2019-03-24T21:27:42.368Z,11.00
2019-03-24T21:30:12.881Z,12.40
2019-03-24T21:32:42.497Z,4.03
2019-03-24T21:35:12.663Z,7.33
2019-03-24T21:37:42.025Z,8.28
2019-03-24T21:40:11.582Z,7.67
2019-03-24T21:42:41.216Z,9.30
2019-03-24T21:45:11.608Z,5.60
2019-03-24T21:47:41.206Z,7.83
2019-03-24T21:50:11.623Z,4.45
2019-03-24T21:52:42.691Z,17.93
2019-03-24T21:55:12.926Z,12.37
2019-03-24T21:57:42.451Z,3.65
2019-03-24T22:00:12.855Z,6.00
2019-03-24T22:02:42.419Z,8.87
2019-03-24T22:05:12.654Z,12.10
2019-03-24T22:07:42.120Z,5.83
2019-03-24T22:10:11.998Z,2.65
2019-03-24T22:12:43.752Z,6.87
2019-03-24T22:15:13.697Z,4.63
2019-03-24T22:17:43.166Z,8.20
2019-03-24T22:20:13.451Z,4.70
2019-03-24T22:23:03.786Z,12.50
2019-03-24T22:25:33.312Z,5.80
2019-03-24T22:28:02.876Z,10.38
2019-03-24T22:30:32.459Z,6.27
2019-03-24T22:33:02.058Z,5.30
2019-03-24T22:35:31.645Z,6.67
2019-03-24T22:38:01.355Z,7.65
2019-03-24T22:40:30.983Z,4.83
2019-03-24T22:43:00.627Z,4.53
2019-03-24T22:45:31.976Z,7.42
2019-03-24T22:48:01.651Z,10.88
2019-03-24T22:50:31.415Z,3.90
2019-03-24T22:53:00.939Z,14.87
2019-03-24T22:55:30.479Z,7.57
2019-03-24T22:58:00.122Z,7.60
2019-03-24T23:00:33.950Z,7.90
2019-03-24T23:03:03.379Z,8.93
2019-03-24T23:05:32.927Z,6.50
2019-03-24T23:08:02.371Z,9.47
2019-03-24T23:10:32.122Z,5.73
2019-03-24T23:13:02.825Z,5.90
2019-03-24T23:15:32.395Z,9.70
2019-03-24T23:18:02.095Z,10.60
2019-03-24T23:20:31.406Z,3.65
2019-03-24T23:23:01.084Z,12.67
2019-03-24T23:25:30.746Z,14.38
2019-03-24T23:28:00.318Z,8.10
2019-03-24T23:30:29.762Z,7.77
2019-03-24T23:32:59.758Z,9.20
2019-03-24T23:35:29.461Z,12.20
2019-03-24T23:38:00.459Z,3.93
2019-03-24T23:40:30.008Z,5.95
2019-03-24T23:42:59.899Z,4.95
2019-03-24T23:45:29.637Z,9.57
2019-03-24T23:47:58.792Z,6.03
2019-03-24T23:50:28.830Z,8.00
2019-03-24T23:52:58.350Z,9.20
2019-03-24T23:55:27.841Z,10.10
2019-03-24T23:58:41.160Z,3.77
